Tarago, Australia
Current Conditions -  °F | °C
As of 9:30 AM on Monday 24 Nov 2014 (Local Time) from YSCB Reporting Station
Rain Showers Rain Showers  
Wind Chill: 75°   Ceiling: 13000
Heat Index: 75°   Visibility: 6mi
Dew Point: 54°   Wind: 9mph
Humidity: 47%   Direction: 250°WSW
Pressure: 29.97"   Gusts: NA
Location:  35.07°S, 149.65°E
Report Text: YSCB 232230Z 25008KT 9999 VCSH FEW040 BKN130 24/12 Q1015
Loading
Personal Weather Stations






























Interactive Weather Map New forecast layout! Learn more

10-Day Weather Forecast

Advertisements
Track Severe Weather on mobile